Time;durP1;ratioP1;P1;durP2;ratioP2;P2;SDS_P1;SDS_P2;PMS_P1;PMS_P2;Temp;Humidity;BMP_temperature;BMP_pressure;BME280_temperature;BME280_humidity;BME280_pressure;Samples;Min_cycle;Max_cycle;Signal;HPM_P1;HPM_P2
2022/06/08 00:00:57;;;;;;;6.22;3.47;;;;;;;13.27;49.87;98898.31;4973043;28;20039;-68
2022/06/08 00:03:29;;;;;;;4.53;2.92;;;;;;;13.28;49.48;98893.78;4955609;28;20551;-68
2022/06/08 00:05:55;;;;;;;7.40;3.00;;;;;;;13.29;50.19;98898.03;4924868;28;20061;-69
2022/06/08 00:08:20;;;;;;;6.25;3.88;;;;;;;13.27;50.42;98890.31;4974685;28;20117;-67
2022/06/08 00:10:46;;;;;;;9.68;3.50;;;;;;;13.22;50.73;98895.63;4975442;28;20129;-68
2022/06/08 00:13:12;;;;;;;6.97;2.75;;;;;;;13.22;50.05;98892.94;4972767;28;20145;-66
2022/06/08 00:15:39;;;;;;;7.07;3.35;;;;;;;13.18;50.93;98900.69;4972849;28;20582;-67
2022/06/08 00:18:06;;;;;;;8.35;3.92;;;;;;;13.13;51.62;98899.88;4955210;28;20479;-67
2022/06/08 00:20:34;;;;;;;21.23;6.25;;;;;;;13.10;53.22;98898.53;4973067;28;20121;-68
2022/06/08 00:22:59;;;;;;;18.17;7.10;;;;;;;13.01;53.57;98900.13;4954541;28;20508;-67
2022/06/08 00:25:25;;;;;;;14.32;5.28;;;;;;;12.96;53.43;98900.91;4955510;28;20102;-67
2022/06/08 00:27:51;;;;;;;11.15;4.65;;;;;;;12.94;53.34;98897.75;4972196;28;20531;-67
2022/06/08 00:30:17;;;;;;;9.57;3.83;;;;;;;12.95;52.89;98888.69;4955395;28;20081;-68
2022/06/08 00:32:44;;;;;;;18.35;6.57;;;;;;;12.98;53.75;98887.38;4936310;29;20046;-68
2022/06/08 00:35:10;;;;;;;15.02;5.03;;;;;;;12.99;53.10;98894.28;4953481;29;20056;-67
2022/06/08 00:37:36;;;;;;;14.35;4.57;;;;;;;13.01;52.59;98892.16;4944469;28;20078;-67
2022/06/08 00:40:03;;;;;;;15.15;6.00;;;;;;;13.03;53.02;98897.19;4972550;28;20042;-67
2022/06/08 00:42:29;;;;;;;8.63;4.32;;;;;;;13.07;52.25;98898.28;4955258;28;20085;-67
2022/06/08 00:44:58;;;;;;;13.63;5.05;;;;;;;13.09;52.68;98896.16;4955076;28;20524;-66
2022/06/08 00:47:28;;;;;;;16.20;5.30;;;;;;;13.08;53.72;98891.88;4954584;28;20074;-67
2022/06/08 00:50:01;;;;;;;12.18;6.53;;;;;;;12.98;54.32;98881.25;4939491;28;20061;-66
2022/06/08 00:52:29;;;;;;;16.42;5.85;;;;;;;13.07;54.37;98891.09;4939238;28;20038;-67
2022/06/08 00:54:58;;;;;;;18.80;6.60;;;;;;;13.06;54.75;98894.81;4973647;28;20082;-67
2022/06/08 00:57:29;;;;;;;14.75;6.78;;;;;;;13.07;54.84;98892.97;4942437;28;20062;-67
2022/06/08 01:00:00;;;;;;;13.13;6.68;;;;;;;13.04;56.13;98891.63;4943047;28;20051;-67
2022/06/08 01:02:27;;;;;;;14.98;6.93;;;;;;;13.04;55.77;98890.81;4958829;28;20035;-66
2022/06/08 01:05:21;;;;;;;19.95;6.25;;;;;;;13.03;54.68;98884.72;4958693;28;20082;-67
2022/06/08 01:07:50;;;;;;;13.55;4.88;;;;;;;13.03;54.24;98887.38;4958131;28;20101;-67
2022/06/08 01:10:20;;;;;;;12.90;7.32;;;;;;;13.10;54.21;98879.13;4958137;28;20436;-68
2022/06/08 01:12:49;;;;;;;16.27;5.38;;;;;;;13.11;54.73;98892.16;4958790;28;20039;-67
2022/06/08 01:15:18;;;;;;;7.57;4.90;;;;;;;13.16;54.17;98881.50;4975137;28;20047;-67
2022/06/08 01:17:44;;;;;;;11.93;5.13;;;;;;;13.19;53.55;98883.63;4942328;28;20049;-68
2022/06/08 01:20:11;;;;;;;9.75;4.13;;;;;;;13.26;52.53;98887.91;4958847;28;20078;-68
2022/06/08 01:22:38;;;;;;;16.30;4.93;;;;;;;13.43;52.18;98885.00;4957684;28;20043;-68
2022/06/08 01:25:05;;;;;;;15.23;4.53;;;;;;;13.59;52.51;98892.69;4958326;28;20051;-68
2022/06/08 01:27:44;;;;;;;12.07;5.07;;;;;;;13.84;52.94;98894.50;4957540;28;20035;-67
2022/06/08 01:30:16;;;;;;;11.18;5.07;;;;;;;14.28;52.17;98895.69;4975789;28;20082;-69
2022/06/08 01:33:03;;;;;;;13.00;5.55;;;;;;;14.79;50.54;98906.09;4975104;28;20046;-68
2022/06/08 01:35:41;;;;;;;19.83;6.85;;;;;;;15.39;48.95;98904.06;4975688;28;20257;-67
2022/06/08 01:38:24;;;;;;;12.45;5.78;;;;;;;15.77;47.87;98900.81;4957633;28;20132;-67
2022/06/08 01:41:13;;;;;;;9.77;5.63;;;;;;;15.68;47.33;98908.66;4975321;28;20558;-67
2022/06/08 01:44:00;;;;;;;7.63;3.75;;;;;;;15.51;47.15;98895.69;4950526;28;20069;-67
2022/06/08 01:46:26;;;;;;;11.98;4.50;;;;;;;15.59;47.15;98899.63;4942124;28;20042;-67
2022/06/08 01:49:01;;;;;;;7.75;4.53;;;;;;;15.72;45.91;98904.31;4957960;28;20397;-67
2022/06/08 01:51:34;;;;;;;8.77;4.22;;;;;;;15.58;46.78;98901.47;4975280;28;20523;-67
2022/06/08 01:54:04;;;;;;;6.97;3.70;;;;;;;15.79;45.90;98912.78;4957827;28;20480;-67
2022/06/08 01:56:47;;;;;;;10.37;4.13;;;;;;;16.45;45.03;98910.44;4975638;28;20047;-67
2022/06/08 01:59:43;;;;;;;15.93;4.75;;;;;;;16.49;45.53;98914.91;4957497;28;20724;-68
2022/06/08 02:02:16;;;;;;;15.75;4.10;;;;;;;16.86;44.10;98916.06;4944115;28;20047;-67
2022/06/08 02:05:06;;;;;;;6.78;4.00;;;;;;;17.22;43.41;98921.66;4941388;28;20050;-67
2022/06/08 02:07:40;;;;;;;5.88;3.90;;;;;;;17.33;43.04;98919.63;4957032;28;20059;-68
2022/06/08 02:10:15;;;;;;;8.20;3.50;;;;;;;17.74;42.01;98918.13;4938149;29;20113;-68
2022/06/08 02:12:46;;;;;;;5.75;3.67;;;;;;;18.11;41.04;98917.19;4941768;28;20085;-68
2022/06/08 02:15:17;;;;;;;;;;;;;;;17.82;40.67;98920.16;4957974;28;20062;-67
2022/06/08 02:17:52;;;;;;;7.15;3.78;;;;;;;17.39;42.30;98923.03;4926331;28;19961;-67
2022/06/08 02:20:27;;;;;;;8.05;3.95;;;;;;;17.29;42.24;98921.28;4974370;28;20039;-67
2022/06/08 02:23:19;;;;;;;8.60;4.40;;;;;;;17.21;42.74;98925.44;4956740;28;20042;-68
2022/06/08 02:25:51;;;;;;;14.10;4.55;;;;;;;17.48;42.20;98929.28;4956897;28;20050;-69
2022/06/08 02:28:38;;;;;;;10.07;4.80;;;;;;;17.86;41.61;98930.00;4941035;28;20523;-68
2022/06/08 02:31:19;;;;;;;9.57;4.80;;;;;;;18.50;40.38;98937.31;4957593;28;20134;-67
2022/06/08 02:36:40;;;;;;;9.20;4.88;;;;;;;19.24;38.90;98937.84;4957105;28;20066;-67
2022/06/08 02:39:16;;;;;;;14.63;6.05;;;;;;;19.51;38.26;98936.91;4940821;28;20130;-67
2022/06/08 02:41:44;;;;;;;10.23;6.82;;;;;;;19.40;38.31;98938.25;4940861;28;20199;-67
2022/06/08 02:44:15;;;;;;;14.20;7.53;;;;;;;18.91;39.39;98944.53;4956410;28;20097;-68
2022/06/08 02:47:04;;;;;;;11.07;6.00;;;;;;;18.84;40.13;98948.44;4937602;29;20054;-67
2022/06/08 02:49:34;;;;;;;14.95;6.15;;;;;;;19.29;39.48;98944.97;4955896;28;20055;-68
2022/06/08 02:52:07;;;;;;;15.07;7.53;;;;;;;19.62;38.64;98942.03;4956811;28;20057;-68
2022/06/08 02:54:33;;;;;;;13.43;8.20;;;;;;;20.13;37.35;98938.81;4940879;28;20043;-67
2022/06/08 02:57:04;;;;;;;18.13;8.35;;;;;;;20.72;36.85;98940.41;4974138;28;20046;-69
2022/06/08 02:59:52;;;;;;;18.05;7.40;;;;;;;21.17;36.77;98948.19;4956179;28;20043;-69
2022/06/08 03:02:25;;;;;;;;;;;;;;;21.38;35.34;98946.44;4941376;28;20496;-68
2022/06/08 03:04:52;;;;;;;11.50;5.55;;;;;;;21.54;34.67;98961.03;4956207;28;19933;-67
2022/06/08 03:07:22;;;;;;;17.13;7.90;;;;;;;21.71;34.67;98959.41;4973250;28;20122;-68
2022/06/08 03:09:48;;;;;;;15.23;9.07;;;;;;;22.07;33.90;98960.88;4940706;28;20085;-68
2022/06/08 03:12:22;;;;;;;20.95;11.32;;;;;;;22.20;33.52;98965.28;4939803;28;20130;-68
2022/06/08 03:14:49;;;;;;;26.95;14.73;;;;;;;22.30;33.58;98969.56;4956309;28;20054;-68
2022/06/08 03:17:16;;;;;;;23.00;9.85;;;;;;;22.50;33.64;98976.09;4955480;28;20393;-67
2022/06/08 03:19:42;;;;;;;13.40;5.20;;;;;;;22.41;33.55;98973.44;4956363;28;20094;-68
2022/06/08 03:22:08;;;;;;;10.43;4.18;;;;;;;22.51;32.97;98978.50;4956276;28;20045;-67
2022/06/08 03:24:34;;;;;;;8.70;4.20;;;;;;;22.58;34.35;98972.56;4940724;28;20461;-67
2022/06/08 03:27:05;;;;;;;8.32;4.75;;;;;;;22.80;34.09;98972.28;4973973;28;20054;-68
2022/06/08 03:29:33;;;;;;;10.30;4.50;;;;;;;23.01;33.85;98979.63;4939488;28;20512;-67
2022/06/08 03:31:59;;;;;;;9.07;4.30;;;;;;;22.50;33.88;98981.50;4956098;28;20043;-68
2022/06/08 03:34:25;;;;;;;7.40;4.15;;;;;;;22.26;34.16;98980.19;4955115;28;20042;-66
2022/06/08 03:36:53;;;;;;;6.63;4.28;;;;;;;22.01;34.55;98979.16;4955800;28;20437;-68
2022/06/08 03:39:19;;;;;;;8.93;4.18;;;;;;;22.54;34.59;98982.44;4955122;28;20039;-67
2022/06/08 03:41:45;;;;;;;11.98;5.07;;;;;;;22.92;34.19;98976.97;4972745;28;20046;-67
2022/06/08 03:44:11;;;;;;;9.60;4.38;;;;;;;23.06;33.80;98990.22;4972509;28;20051;-68
2022/06/08 03:46:41;;;;;;;12.00;4.95;;;;;;;23.11;33.77;98988.13;4955609;28;20516;-67
2022/06/08 03:49:08;;;;;;;10.93;4.80;;;;;;;23.10;33.92;98981.13;4939596;28;20050;-67
2022/06/08 03:51:34;;;;;;;14.00;5.22;;;;;;;22.96;34.14;98975.19;4973374;28;20089;-67
2022/06/08 03:54:04;;;;;;;8.43;5.03;;;;;;;22.61;34.43;98974.59;4939419;28;20124;-67
2022/06/08 03:56:32;;;;;;;9.95;5.18;;;;;;;22.12;35.21;98975.00;4972564;28;20055;-67
2022/06/08 03:58:58;;;;;;;7.63;4.55;;;;;;;22.00;35.94;98975.69;4954966;28;20147;-68
2022/06/08 04:01:26;;;;;;;11.15;5.15;;;;;;;22.39;35.46;98976.47;4939622;28;20070;-67
2022/06/08 04:03:57;;;;;;;7.90;4.38;;;;;;;22.73;34.83;98968.50;4955772;28;20496;-69
2022/06/08 04:06:26;;;;;;;6.18;4.55;;;;;;;23.07;33.70;98987.19;4956176;28;20051;-67
2022/06/08 04:08:53;;;;;;;9.82;4.25;;;;;;;22.74;34.29;98979.00;4972087;28;20073;-68
2022/06/08 04:11:20;;;;;;;11.93;4.05;;;;;;;22.82;33.81;98982.72;4955673;28;20061;-68
2022/06/08 04:13:45;;;;;;;6.65;3.75;;;;;;;22.81;33.03;98992.75;4972539;28;20038;-68
2022/06/08 04:16:16;;;;;;;13.43;4.10;;;;;;;22.93;33.15;98989.34;4954919;28;20051;-66
2022/06/08 04:18:44;;;;;;;6.82;3.60;;;;;;;23.02;33.59;98995.50;4954508;28;20046;-67
2022/06/08 04:21:12;;;;;;;6.00;3.72;;;;;;;22.97;33.16;98990.31;4972587;28;20117;-68
2022/06/08 04:24:00;;;;;;;5.25;3.05;;;;;;;22.79;32.02;98986.88;4971982;28;20058;-68
2022/06/08 04:26:27;;;;;;;8.43;3.78;;;;;;;22.90;32.02;98990.00;4972326;28;20047;-66
2022/06/08 04:28:59;;;;;;;6.55;3.72;;;;;;;23.21;31.71;98989.66;4954125;28;20588;-67
2022/06/08 04:31:26;;;;;;;5.35;3.38;;;;;;;23.32;32.32;98993.53;4954888;28;20384;-68
2022/06/08 04:33:59;;;;;;;6.18;3.63;;;;;;;23.37;31.49;99000.63;4954911;28;20519;-67
2022/06/08 04:36:31;;;;;;;5.13;3.00;;;;;;;23.17;30.58;98996.81;4939677;28;20480;-67
2022/06/08 04:38:58;;;;;;;6.55;3.08;;;;;;;22.78;31.39;98985.31;4954517;28;20043;-66
2022/06/08 04:41:26;;;;;;;5.50;3.50;;;;;;;22.69;32.18;98989.97;4954795;28;20050;-67
2022/06/08 04:43:55;;;;;;;7.63;2.88;;;;;;;22.44;31.98;98987.09;4954322;28;20453;-68
2022/06/08 04:46:20;;;;;;;4.68;2.85;;;;;;;22.27;32.16;98989.09;4954729;28;20043;-67
2022/06/08 04:48:50;;;;;;;5.15;2.53;;;;;;;22.47;31.68;98984.84;4954404;28;20045;-67
2022/06/08 04:51:19;;;;;;;3.45;2.53;;;;;;;23.02;31.05;98989.31;4954675;28;20043;-67
2022/06/08 04:53:47;;;;;;;4.80;2.60;;;;;;;23.13;30.30;98987.78;4954048;28;20468;-66
2022/06/08 04:56:14;;;;;;;4.30;2.20;;;;;;;23.16;30.43;98980.94;4938881;28;20054;-67
2022/06/08 04:58:41;;;;;;;6.93;2.60;;;;;;;23.03;30.31;98982.78;4954787;28;20110;-67
2022/06/08 05:01:07;;;;;;;4.07;2.15;;;;;;;22.97;30.41;98984.91;4954756;28;20068;-66
2022/06/08 05:03:34;;;;;;;4.43;2.35;;;;;;;22.81;30.70;98987.34;4954543;28;20050;-66
2022/06/08 05:06:01;;;;;;;5.05;2.05;;;;;;;22.98;30.06;98983.78;4907502;28;20051;-66
2022/06/08 05:08:31;;;;;;;3.80;2.30;;;;;;;22.83;30.44;98984.34;4954488;28;20500;-66
2022/06/08 05:10:57;;;;;;;5.43;2.20;;;;;;;22.72;31.18;98981.22;4953872;28;20141;-66
2022/06/08 05:13:25;;;;;;;4.55;2.00;;;;;;;22.63;31.49;98989.38;4954596;28;20406;-66
2022/06/08 05:16:01;;;;;;;3.25;2.53;;;;;;;22.36;32.11;98990.63;4954546;28;20065;-68
2022/06/08 05:18:27;;;;;;;4.10;2.38;;;;;;;22.13;32.46;98989.28;4954128;28;20070;-66
2022/06/08 05:20:57;;;;;;;5.22;2.53;;;;;;;22.18;33.12;98989.13;4939223;28;20062;-68
2022/06/08 05:23:33;;;;;;;6.32;2.45;;;;;;;22.24;33.16;98993.25;4937724;28;20047;-67
2022/06/08 05:26:02;;;;;;;7.68;2.70;;;;;;;22.16;33.37;98994.03;4954774;28;20129;-68
2022/06/08 05:28:29;;;;;;;5.22;2.20;;;;;;;22.08;33.67;99000.25;4971329;28;20094;-67
2022/06/08 05:30:58;;;;;;;3.03;2.00;;;;;;;21.89;32.83;98997.94;4938788;28;20038;-67
2022/06/08 05:33:28;;;;;;;5.80;2.85;;;;;;;21.63;33.48;98993.38;4937747;28;20047;-70
2022/06/08 05:35:57;;;;;;;;;;;;;;;21.36;33.79;99001.78;4939688;28;20505;-65
2022/06/08 05:38:23;;;;;;;2.35;1.90;;;;;;;21.17;33.88;98992.09;4954200;28;19929;-70
2022/06/08 05:40:49;;;;;;;3.42;2.10;;;;;;;21.09;33.63;99001.78;4955642;28;20047;-67
2022/06/08 05:43:15;;;;;;;2.80;2.10;;;;;;;21.02;33.72;99003.34;4957950;28;20084;-69
2022/06/08 05:45:47;;;;;;;4.70;2.00;;;;;;;21.05;33.75;99000.81;4958203;28;20129;-69
2022/06/08 05:48:14;;;;;;;5.18;2.05;;;;;;;20.94;34.28;99001.44;4957342;28;20458;-68
2022/06/08 05:50:42;;;;;;;3.70;2.28;;;;;;;20.81;34.57;99005.88;4941715;28;20062;-69
2022/06/08 05:53:11;;;;;;;2.33;1.92;;;;;;;20.71;34.17;99000.78;4941619;28;20432;-69
2022/06/08 05:55:37;;;;;;;2.97;2.00;;;;;;;20.63;34.69;99005.03;4957541;28;20057;-69
2022/06/08 05:58:04;;;;;;;2.38;1.98;;;;;;;20.64;34.90;99009.31;4975076;28;20090;-68
2022/06/08 06:00:37;;;;;;;5.50;2.13;;;;;;;20.39;34.66;99011.59;4957302;28;20046;-73
2022/06/08 06:03:03;;;;;;;3.47;2.00;;;;;;;20.40;35.10;99015.06;4957806;28;20134;-69
2022/06/08 06:05:31;;;;;;;6.40;2.00;;;;;;;20.36;36.48;99009.53;4941552;28;20173;-70
2022/06/08 06:08:00;;;;;;;3.03;2.00;;;;;;;20.27;35.87;99011.38;4957660;28;20598;-69
2022/06/08 06:10:35;;;;;;;4.20;1.98;;;;;;;20.29;35.87;99011.84;4957570;28;20066;-70
2022/06/08 06:13:03;;;;;;;6.07;1.92;;;;;;;20.35;34.65;99016.03;4941745;28;20047;-70
2022/06/08 06:15:40;;;;;;;3.55;2.05;;;;;;;20.27;35.39;99011.38;4941183;28;20066;-68
2022/06/08 06:18:06;;;;;;;2.55;1.70;;;;;;;20.27;34.22;99024.06;4956870;28;20515;-72
2022/06/08 06:20:33;;;;;;;4.30;1.83;;;;;;;20.17;34.67;99022.41;4956258;28;20061;-70
2022/06/08 06:23:23;;;;;;;2.45;1.80;;;;;;;20.15;35.35;99032.72;4946365;28;20082;-70
2022/06/08 06:25:59;;;;;;;3.08;1.80;;;;;;;20.05;34.64;99024.88;4956930;28;20483;-70
2022/06/08 06:28:43;;;;;;;3.05;1.80;;;;;;;20.00;33.86;99022.31;4973906;28;20042;-70
2022/06/08 06:31:49;;;;;;;5.70;1.67;;;;;;;19.94;34.19;99024.34;4943630;28;20153;-70
2022/06/08 06:34:20;;;;;;;3.60;2.45;;;;;;;19.93;33.47;99022.75;4952673;28;20047;-70
2022/06/08 06:36:49;;;;;;;5.03;1.70;;;;;;;19.87;32.65;99022.09;4920866;28;20142;-72
2022/06/08 06:39:15;;;;;;;2.45;1.42;;;;;;;19.76;32.26;99026.13;4951905;28;20045;-70
2022/06/08 06:41:44;;;;;;;2.03;1.50;;;;;;;19.68;30.94;99018.81;4953514;28;20178;-71
2022/06/08 06:44:10;;;;;;;3.97;1.65;;;;;;;19.73;33.15;99011.41;4935977;28;20046;-70
2022/06/08 06:46:42;;;;;;;2.83;1.52;;;;;;;19.82;31.28;99021.44;4938776;28;20482;-71
2022/06/08 06:49:28;;;;;;;6.03;1.80;;;;;;;19.71;32.59;99018.22;4954661;28;20043;-70
2022/06/08 06:51:54;;;;;;;3.35;1.60;;;;;;;19.85;31.32;99024.28;4949491;28;20071;-69
2022/06/08 06:54:21;;;;;;;1.35;1.25;;;;;;;19.80;29.17;99031.72;4933749;29;20046;-70
2022/06/08 06:56:48;;;;;;;4.03;1.70;;;;;;;19.70;29.19;99044.28;4950929;29;20042;-70
2022/06/08 06:59:25;;;;;;;3.10;1.40;;;;;;;19.72;28.47;99036.72;4936080;28;20046;-72
2022/06/08 07:01:51;;;;;;;2.83;1.48;;;;;;;19.71;29.04;99039.72;4951377;28;20046;-68
2022/06/08 07:04:18;;;;;;;2.08;1.17;;;;;;;19.76;28.77;99031.50;4953714;28;20043;-69
2022/06/08 07:06:46;;;;;;;1.58;1.38;;;;;;;19.90;28.89;99015.31;4954504;28;20042;-70
2022/06/08 07:09:11;;;;;;;2.28;1.67;;;;;;;19.92;29.59;99027.34;4954456;28;20090;-69
2022/06/08 07:11:42;;;;;;;1.83;1.52;;;;;;;19.98;29.39;99022.63;4954144;28;20042;-69
2022/06/08 07:14:17;;;;;;;2.88;1.63;;;;;;;19.95;29.28;99023.25;4953222;28;20053;-70
2022/06/08 07:16:47;;;;;;;2.97;1.80;;;;;;;20.00;30.67;99027.69;4937162;28;20042;-70
2022/06/08 07:19:16;;;;;;;2.17;1.60;;;;;;;20.10;30.82;99030.94;4916481;29;20135;-70
2022/06/08 07:21:42;;;;;;;4.00;1.80;;;;;;;20.16;31.21;99020.81;4933770;29;20122;-70
2022/06/08 07:24:11;;;;;;;6.10;1.80;;;;;;;20.29;31.68;99021.81;4936983;28;20046;-70
2022/06/08 07:26:36;;;;;;;2.45;2.00;;;;;;;20.35;30.72;99015.19;4954086;28;20077;-72
2022/06/08 07:29:02;;;;;;;3.97;1.80;;;;;;;20.34;30.26;99021.69;4969767;28;20138;-71
2022/06/08 07:31:28;;;;;;;3.22;1.80;;;;;;;20.20;30.67;99021.78;4950982;28;20477;-71
2022/06/08 07:33:54;;;;;;;1.83;1.55;;;;;;;20.15;30.18;99021.94;4968896;28;20562;-71
2022/06/08 07:36:20;;;;;;;3.88;1.70;;;;;;;20.20;30.84;99032.56;4969343;28;20092;-72
2022/06/08 07:38:46;;;;;;;2.45;1.70;;;;;;;20.27;30.60;99010.59;4968704;28;20046;-71
2022/06/08 07:41:12;;;;;;;2.72;1.65;;;;;;;20.46;30.54;99016.50;4951324;28;20504;-71
2022/06/08 07:43:38;;;;;;;4.00;2.00;;;;;;;20.41;30.79;99017.47;4967218;28;20101;-70
2022/06/08 07:46:05;;;;;;;3.40;1.83;;;;;;;20.35;31.42;99025.97;4971748;28;20082;-72
2022/06/08 07:51:16;;;;;;;3.53;2.22;;;;;;;20.35;31.37;99023.28;4953398;28;20125;-71
2022/06/08 07:53:42;;;;;;;2.42;1.83;;;;;;;20.48;30.69;99017.00;4953579;28;20185;-71
2022/06/08 07:56:08;;;;;;;2.13;1.80;;;;;;;20.60;30.66;99005.66;4953617;28;20043;-70
2022/06/08 07:58:34;;;;;;;4.75;1.92;;;;;;;20.75;31.41;99005.22;4968785;28;20507;-71
2022/06/08 08:01:00;;;;;;;3.63;2.30;;;;;;;20.92;31.81;99009.84;4953152;28;20526;-70
2022/06/08 08:03:26;;;;;;;2.63;1.67;;;;;;;21.02;31.45;99011.44;4953025;28;20054;-70
2022/06/08 08:05:52;;;;;;;4.45;1.60;;;;;;;20.96;30.78;99018.09;4970719;28;20090;-70
2022/06/08 08:08:19;;;;;;;3.28;1.75;;;;;;;20.81;31.02;99008.56;4971101;28;20056;-72
2022/06/08 08:10:45;;;;;;;2.42;1.88;;;;;;;20.76;31.15;99014.09;4971722;28;20051;-70
2022/06/08 08:13:11;;;;;;;6.40;2.38;;;;;;;20.73;31.38;99009.34;4969378;28;20047;-70
2022/06/08 08:15:38;;;;;;;3.72;1.70;;;;;;;20.72;31.21;99008.53;4953917;28;20066;-70
2022/06/08 08:18:04;;;;;;;2.55;1.80;;;;;;;20.68;31.02;99001.38;4970005;28;20043;-71
2022/06/08 08:20:32;;;;;;;2.47;1.92;;;;;;;20.75;31.03;98997.13;4968314;28;20493;-70
2022/06/08 08:22:58;;;;;;;4.00;2.63;;;;;;;20.78;30.81;98999.19;4953586;28;20042;-70
2022/06/08 08:25:25;;;;;;;3.22;2.17;;;;;;;20.90;31.05;99001.28;4952856;28;20053;-71
2022/06/08 08:27:51;;;;;;;3.53;1.83;;;;;;;20.89;32.09;98999.72;4937027;28;20039;-71
2022/06/08 08:30:23;;;;;;;3.13;2.00;;;;;;;20.96;30.65;99001.94;4953199;28;20066;-70
2022/06/08 08:32:49;;;;;;;3.08;1.80;;;;;;;20.99;30.53;99002.09;4969104;28;20585;-72
2022/06/08 08:35:16;;;;;;;3.75;1.88;;;;;;;21.02;31.26;98995.28;4950879;28;20054;-70
2022/06/08 08:37:43;;;;;;;4.05;2.00;;;;;;;21.03;30.80;98996.84;4970118;28;20035;-69
2022/06/08 08:40:26;;;;;;;4.60;1.83;;;;;;;21.12;29.96;98996.84;4969944;28;20042;-71
2022/06/08 08:42:52;;;;;;;5.07;1.98;;;;;;;21.18;30.35;98984.81;4950799;28;20089;-71
2022/06/08 08:45:18;;;;;;;7.03;2.22;;;;;;;21.29;31.61;98999.56;4970540;28;20050;-70
2022/06/08 08:47:53;;;;;;;1.88;1.50;;;;;;;21.15;28.86;98997.03;4935986;28;20038;-71
2022/06/08 08:50:21;;;;;;;3.72;1.65;;;;;;;21.08;29.45;98994.78;4968367;28;20047;-71
2022/06/08 08:52:56;;;;;;;3.25;1.67;;;;;;;21.12;28.66;98986.91;4970923;28;20058;-71
2022/06/08 08:55:46;;;;;;;4.05;1.67;;;;;;;21.08;28.27;98994.00;4970665;28;20142;-71
2022/06/08 08:58:15;;;;;;;2.55;1.70;;;;;;;21.07;29.00;98979.75;4936999;28;20039;-73
2022/06/08 09:00:51;;;;;;;2.35;1.65;;;;;;;21.15;28.60;98978.19;4970799;28;20050;-73
2022/06/08 09:03:30;;;;;;;2.08;1.50;;;;;;;21.23;28.24;98976.56;4970055;28;20055;-73
2022/06/08 09:05:58;;;;;;;;;;;;;;;21.22;27.76;98983.09;4938175;28;20085;-73
2022/06/08 09:08:24;;;;;;;3.40;2.35;;;;;;;21.25;27.31;98982.44;4952771;28;20405;-73
2022/06/08 09:10:51;;;;;;;2.75;1.65;;;;;;;21.17;26.80;98969.75;4971114;28;20043;-72
2022/06/08 09:13:25;;;;;;;5.28;1.77;;;;;;;21.25;26.66;98974.34;4970232;28;20456;-72
2022/06/08 09:15:56;;;;;;;4.38;1.80;;;;;;;21.32;26.86;98967.38;4951129;28;20074;-70
2022/06/08 09:18:36;;;;;;;3.15;1.85;;;;;;;21.41;28.69;98986.25;4953659;28;20114;-72
2022/06/08 09:21:35;;;;;;;1.73;1.63;;;;;;;21.28;26.72;98979.91;4954960;28;20051;-71
2022/06/08 09:24:09;;;;;;;3.30;1.50;;;;;;;21.26;25.65;98973.22;4920852;29;20043;-72
2022/06/08 09:26:39;;;;;;;2.45;1.65;;;;;;;21.23;26.38;98979.25;4954246;29;20062;-72
2022/06/08 09:29:21;;;;;;;2.67;1.63;;;;;;;21.19;25.77;98975.63;4951130;28;20043;-72
2022/06/08 09:31:51;;;;;;;4.63;1.95;;;;;;;21.17;26.01;98983.22;4934103;29;20138;-71
2022/06/08 09:34:17;;;;;;;3.83;1.58;;;;;;;21.23;26.38;98979.25;4933603;29;20040;-71
2022/06/08 09:36:43;;;;;;;1.73;1.63;;;;;;;21.33;25.77;98984.34;4935067;29;20103;-71
2022/06/08 09:39:18;;;;;;;2.08;1.52;;;;;;;21.27;25.96;98981.03;4936141;29;20040;-72
2022/06/08 09:41:52;;;;;;;1.90;1.70;;;;;;;21.27;26.57;98980.22;4937562;29;20061;-72
2022/06/08 09:44:28;;;;;;;5.93;1.60;;;;;;;21.32;26.24;98972.78;4937270;29;20039;-72
2022/06/08 09:53:23;;;;;;;4.78;2.05;;;;;;;21.54;26.90;98961.03;4942184;29;20035;-69
2022/06/08 09:56:24;;;;;;;3.03;1.95;;;;;;;21.62;26.73;98974.81;4910254;29;20063;-71
2022/06/08 09:59:06;;;;;;;1.98;1.55;;;;;;;21.48;27.72;98965.00;4948030;29;20123;-71
2022/06/08 10:01:57;;;;;;;3.00;1.80;;;;;;;21.51;26.98;98974.38;4952495;28;20512;-70
2022/06/08 10:04:56;;;;;;;3.47;1.70;;;;;;;21.39;26.38;98966.13;4944498;29;20452;-72
2022/06/08 10:07:41;;;;;;;2.10;1.90;;;;;;;21.45;26.25;98965.66;4952496;29;20403;-71
2022/06/08 10:10:25;;;;;;;2.72;1.60;;;;;;;21.44;28.23;98960.56;4949884;29;20117;-71
2022/06/08 10:12:58;;;;;;;2.00;1.70;;;;;;;21.43;27.26;98964.38;4950041;28;20319;-72
2022/06/08 10:15:30;;;;;;;2.53;1.70;;;;;;;21.43;27.61;98957.06;4950124;28;20059;-71
2022/06/08 10:18:24;;;;;;;2.63;1.67;;;;;;;21.47;28.13;98960.75;4952548;28;20043;-70
2022/06/08 10:20:52;;;;;;;3.63;1.70;;;;;;;21.53;28.17;98961.34;4949284;28;20051;-72
2022/06/08 10:23:34;;;;;;;2.30;1.83;;;;;;;21.53;27.62;98951.38;4950779;29;20043;-72
2022/06/08 10:26:31;;;;;;;1.77;1.67;;;;;;;21.49;27.29;98953.09;4933555;29;20061;-71
2022/06/08 10:29:06;;;;;;;2.28;1.80;;;;;;;21.52;26.14;98955.16;4951900;28;20444;-69
2022/06/08 10:31:58;;;;;;;2.97;1.60;;;;;;;21.52;24.91;98952.47;4951859;28;20472;-71
2022/06/08 10:34:31;;;;;;;3.15;1.77;;;;;;;21.56;26.04;98944.53;4946965;29;20043;-72
2022/06/08 10:37:04;;;;;;;7.68;1.90;;;;;;;21.63;26.41;98944.81;4935580;29;20102;-72
2022/06/08 10:39:32;;;;;;;2.50;1.55;;;;;;;21.64;26.47;98942.91;4931710;28;20047;-71
2022/06/08 10:45:23;;;;;;;2.92;1.50;;;;;;;21.68;27.16;98935.78;4941516;29;20051;-71
2022/06/08 10:48:01;;;;;;;3.05;1.58;;;;;;;21.71;26.85;98937.84;4951565;29;20058;-69
2022/06/08 10:50:31;;;;;;;4.60;1.60;;;;;;;21.75;27.42;98941.47;4916081;29;20044;-72
2022/06/08 10:55:48;;;;;;;2.72;1.67;;;;;;;21.75;26.64;98946.84;4909245;28;20215;-72
2022/06/08 10:58:16;;;;;;;2.78;1.73;;;;;;;21.72;26.99;98942.13;4951625;28;20517;-71
2022/06/08 11:00:52;;;;;;;3.17;1.63;;;;;;;21.71;27.25;98938.63;4951958;28;20055;-71
2022/06/08 11:03:40;;;;;;;3.47;1.80;;;;;;;21.75;27.19;98944.16;4951673;29;20039;-72
2022/06/08 11:06:11;;;;;;;2.25;1.58;;;;;;;21.80;27.04;98932.41;4933912;29;20058;-72
2022/06/08 11:08:51;;;;;;;1.80;1.70;;;;;;;21.82;26.81;98928.25;4920718;29;20197;-70
2022/06/08 11:11:36;;;;;;;;;;;;;;;21.83;26.92;98929.06;4954535;29;20076;-71
2022/06/08 11:14:01;;;;;;;6.32;2.40;;;;;;;21.80;27.39;98927.81;4951088;28;19927;-71
2022/06/08 11:16:30;;;;;;;4.55;2.25;;;;;;;21.78;27.65;98932.72;4974319;28;20039;-71
2022/06/08 11:19:15;;;;;;;2.08;1.67;;;;;;;21.87;26.71;98927.31;4954693;28;20500;-71
2022/06/08 11:21:41;;;;;;;4.13;1.50;;;;;;;21.84;26.88;98928.72;4949578;29;20133;-72
2022/06/08 11:24:30;;;;;;;4.32;1.73;;;;;;;21.87;27.45;98924.59;4954243;28;20074;-70
2022/06/08 11:27:11;;;;;;;5.63;2.00;;;;;;;21.87;27.67;98925.38;4971447;28;20038;-71
2022/06/08 11:29:38;;;;;;;3.15;1.73;;;;;;;21.91;27.47;98929.03;4972759;28;20066;-72
2022/06/08 11:32:04;;;;;;;6.28;2.10;;;;;;;21.96;27.79;98925.34;4971164;28;20535;-68
2022/06/08 11:34:42;;;;;;;5.15;1.80;;;;;;;22.00;27.39;98935.19;4972059;28;21131;-69
2022/06/08 11:37:12;;;;;;;4.70;2.38;;;;;;;22.05;27.47;98925.31;4954304;28;20054;-69
2022/06/08 11:40:03;;;;;;;3.72;1.85;;;;;;;22.04;27.44;98921.06;4970713;28;20523;-69
2022/06/08 11:42:33;;;;;;;5.25;2.33;;;;;;;22.09;27.71;98921.66;4973088;28;20089;-69
2022/06/08 11:45:05;;;;;;;4.05;2.13;;;;;;;22.11;27.02;98919.41;4954629;28;20101;-67
2022/06/08 11:47:49;;;;;;;4.07;1.90;;;;;;;22.11;26.96;98926.72;4955174;28;20077;-67
2022/06/08 11:50:25;;;;;;;6.57;2.45;;;;;;;22.09;27.22;98918.16;4972705;28;20130;-67
2022/06/08 11:53:05;;;;;;;3.67;2.15;;;;;;;22.09;26.62;98929.75;4955513;28;20515;-67
2022/06/08 11:55:42;;;;;;;4.25;1.80;;;;;;;22.11;26.83;98921.31;4972568;28;20054;-67
2022/06/08 11:58:16;;;;;;;3.17;1.67;;;;;;;22.10;26.62;98917.84;4938679;28;20057;-67
2022/06/08 12:00:42;;;;;;;3.63;1.80;;;;;;;22.09;27.34;98918.97;4953814;28;20081;-69
2022/06/08 12:03:17;;;;;;;4.70;1.70;;;;;;;22.08;26.30;98928.16;4971757;28;20453;-68
2022/06/08 12:05:48;;;;;;;2.35;1.70;;;;;;;22.08;25.91;98920.06;4953709;28;20047;-68
2022/06/08 12:08:19;;;;;;;7.00;2.20;;;;;;;22.14;25.66;98920.66;4938877;28;20038;-68
2022/06/08 12:10:44;;;;;;;6.57;2.50;;;;;;;22.16;24.21;98913.03;4971439;28;20046;-68